Lancelin, Australia
Current Conditions -  °F | °C
As of 3:11 AM on Wednesday 22 Oct 2014 (Local Time) from YPEA Reporting Station
Clear Clear  
Wind Chill: 66°   Ceiling: Unl
Heat Index: 66°   Visibility: 6mi
Dew Point: 52°   Wind: 22mph
Humidity: 60%   Direction: 90°E
Pressure: 29.91"   Gusts: 33mph
Location:  31.02°S, 115.33°E
Report Text: YPEA 211911Z AUTO 09019G29KT 9999 // NCD 19/11 Q1013
Loading
Personal Weather Stations






























Interactive Weather Map
Tropical Storm Tracking
New forecast layout! Learn more

10-Day Weather Forecast

Advertisements
Track Severe Weather on mobile